sensor_id;sensor_type;location;lat;lon;timestamp;temperature;humidity
75489;HTU21D;64069;46.396;48.102;2024-03-02T00:00:04;-2.39;64.41
75489;HTU21D;64069;46.396;48.102;2024-03-02T00:02:44;-2.39;64.30
75489;HTU21D;64069;46.396;48.102;2024-03-02T00:05:19;-2.42;64.42
75489;HTU21D;64069;46.396;48.102;2024-03-02T00:07:47;-2.43;64.62
75489;HTU21D;64069;46.396;48.102;2024-03-02T00:10:22;-2.47;64.71
75489;HTU21D;64069;46.396;48.102;2024-03-02T00:12:57;-2.47;64.76
75489;HTU21D;64069;46.396;48.102;2024-03-02T00:17:56;-2.54;64.96
75489;HTU21D;64069;46.396;48.102;2024-03-02T00:20:23;-2.57;65.04
75489;HTU21D;64069;46.396;48.102;2024-03-02T00:22:50;-2.58;65.17
75489;HTU21D;64069;46.396;48.102;2024-03-02T00:25:16;-2.61;65.09
75489;HTU21D;64069;46.396;48.102;2024-03-02T00:27:47;-2.63;65.06
75489;HTU21D;64069;46.396;48.102;2024-03-02T00:30:39;-2.65;65.54
75489;HTU21D;64069;46.396;48.102;2024-03-02T00:33:09;-2.64;65.70
75489;HTU21D;64069;46.396;48.102;2024-03-02T00:35:36;-2.63;65.76
75489;HTU21D;64069;46.396;48.102;2024-03-02T00:38:05;-2.62;66.07
75489;HTU21D;64069;46.396;48.102;2024-03-02T00:40:34;-2.60;66.17
75489;HTU21D;64069;46.396;48.102;2024-03-02T00:43:01;-2.63;66.31
75489;HTU21D;64069;46.396;48.102;2024-03-02T00:45:29;-2.60;66.32
75489;HTU21D;64069;46.396;48.102;2024-03-02T00:47:55;-2.60;66.33
75489;HTU21D;64069;46.396;48.102;2024-03-02T00:50:22;-2.62;66.49
75489;HTU21D;64069;46.396;48.102;2024-03-02T00:52:47;-2.64;66.42
75489;HTU21D;64069;46.396;48.102;2024-03-02T00:55:17;-2.67;66.64
75489;HTU21D;64069;46.396;48.102;2024-03-02T00:57:43;-2.69;66.65
75489;HTU21D;64069;46.396;48.102;2024-03-02T01:00:10;-2.71;66.98
75489;HTU21D;64069;46.396;48.102;2024-03-02T01:02:37;-2.74;67.36
75489;HTU21D;64069;46.396;48.102;2024-03-02T01:05:04;-2.75;67.73
75489;HTU21D;64069;46.396;48.102;2024-03-02T01:07:30;-2.79;67.64
75489;HTU21D;64069;46.396;48.102;2024-03-02T01:09:57;-2.79;68.04
75489;HTU21D;64069;46.396;48.102;2024-03-02T01:12:22;-2.78;68.20
75489;HTU21D;64069;46.396;48.102;2024-03-02T01:14:48;-2.78;68.00
75489;HTU21D;64069;46.396;48.102;2024-03-02T01:17:14;-2.75;68.31
75489;HTU21D;64069;46.396;48.102;2024-03-02T01:19:41;-2.75;68.41
75489;HTU21D;64069;46.396;48.102;2024-03-02T01:22:07;-2.74;68.33
75489;HTU21D;64069;46.396;48.102;2024-03-02T01:24:34;-2.72;68.64
75489;HTU21D;64069;46.396;48.102;2024-03-02T01:26:59;-2.68;68.93
75489;HTU21D;64069;46.396;48.102;2024-03-02T01:29:25;-2.68;68.56
75489;HTU21D;64069;46.396;48.102;2024-03-02T01:31:51;-2.66;68.67
75489;HTU21D;64069;46.396;48.102;2024-03-02T01:34:19;-2.64;68.75
75489;HTU21D;64069;46.396;48.102;2024-03-02T01:36:45;-2.63;68.76
75489;HTU21D;64069;46.396;48.102;2024-03-02T01:39:11;-2.61;68.76
75489;HTU21D;64069;46.396;48.102;2024-03-02T01:41:37;-2.58;68.99
75489;HTU21D;64069;46.396;48.102;2024-03-02T01:44:04;-2.54;68.95
75489;HTU21D;64069;46.396;48.102;2024-03-02T01:46:30;-2.50;69.20
75489;HTU21D;64069;46.396;48.102;2024-03-02T01:48:56;-2.48;69.16
75489;HTU21D;64069;46.396;48.102;2024-03-02T01:51:22;-2.45;69.32
75489;HTU21D;64069;46.396;48.102;2024-03-02T01:53:48;-2.47;69.10
75489;HTU21D;64069;46.396;48.102;2024-03-02T01:56:14;-2.48;69.21
75489;HTU21D;64069;46.396;48.102;2024-03-02T01:58:40;-2.48;69.17
75489;HTU21D;64069;46.396;48.102;2024-03-02T02:01:06;-2.48;69.19
75489;HTU21D;64069;46.396;48.102;2024-03-02T02:03:32;-2.47;69.07
75489;HTU21D;64069;46.396;48.102;2024-03-02T02:05:58;-2.46;69.24
75489;HTU21D;64069;46.396;48.102;2024-03-02T02:08:24;-2.43;69.33
75489;HTU21D;64069;46.396;48.102;2024-03-02T02:10:50;-2.44;69.25
75489;HTU21D;64069;46.396;48.102;2024-03-02T02:13:16;-2.45;69.42
75489;HTU21D;64069;46.396;48.102;2024-03-02T02:15:42;-2.46;69.58
75489;HTU21D;64069;46.396;48.102;2024-03-02T02:18:08;-2.44;69.74
75489;HTU21D;64069;46.396;48.102;2024-03-02T02:20:34;-2.44;69.61
75489;HTU21D;64069;46.396;48.102;2024-03-02T02:23:02;-2.44;69.86
75489;HTU21D;64069;46.396;48.102;2024-03-02T02:25:29;-2.46;70.07
75489;HTU21D;64069;46.396;48.102;2024-03-02T02:27:56;-2.47;70.35
75489;HTU21D;64069;46.396;48.102;2024-03-02T02:30:25;-2.47;70.28
75489;HTU21D;64069;46.396;48.102;2024-03-02T02:32:51;-2.48;70.63
75489;HTU21D;64069;46.396;48.102;2024-03-02T02:35:17;-2.46;70.92
75489;HTU21D;64069;46.396;48.102;2024-03-02T02:37:44;-2.46;71.06
75489;HTU21D;64069;46.396;48.102;2024-03-02T02:40:11;-2.48;71.21
75489;HTU21D;64069;46.396;48.102;2024-03-02T02:42:38;-2.44;71.93
75489;HTU21D;64069;46.396;48.102;2024-03-02T02:45:06;-2.45;71.84
75489;HTU21D;64069;46.396;48.102;2024-03-02T02:47:32;-2.47;72.06
75489;HTU21D;64069;46.396;48.102;2024-03-02T02:50:02;-2.54;72.06
75489;HTU21D;64069;46.396;48.102;2024-03-02T02:52:36;-2.61;72.13
75489;HTU21D;64069;46.396;48.102;2024-03-02T02:55:04;-2.65;72.67
75489;HTU21D;64069;46.396;48.102;2024-03-02T02:57:32;-2.68;72.65
75489;HTU21D;64069;46.396;48.102;2024-03-02T03:00:12;-2.74;72.71
75489;HTU21D;64069;46.396;48.102;2024-03-02T03:02:42;-2.77;72.58
75489;HTU21D;64069;46.396;48.102;2024-03-02T03:05:09;-2.77;72.64
75489;HTU21D;64069;46.396;48.102;2024-03-02T03:07:36;-2.80;72.87
75489;HTU21D;64069;46.396;48.102;2024-03-02T03:10:03;-2.80;72.91
75489;HTU21D;64069;46.396;48.102;2024-03-02T03:12:33;-2.80;72.88
75489;HTU21D;64069;46.396;48.102;2024-03-02T03:14:59;-2.78;72.97
75489;HTU21D;64069;46.396;48.102;2024-03-02T03:17:26;-2.77;72.77
75489;HTU21D;64069;46.396;48.102;2024-03-02T03:19:53;-2.76;72.76
75489;HTU21D;64069;46.396;48.102;2024-03-02T03:22:19;-2.71;72.71
75489;HTU21D;64069;46.396;48.102;2024-03-02T03:24:45;-2.67;72.62
75489;HTU21D;64069;46.396;48.102;2024-03-02T03:27:11;-2.61;72.80
75489;HTU21D;64069;46.396;48.102;2024-03-02T03:29:37;-2.56;72.81
75489;HTU21D;64069;46.396;48.102;2024-03-02T03:32:04;-2.50;72.77
75489;HTU21D;64069;46.396;48.102;2024-03-02T03:34:34;-2.42;72.84
75489;HTU21D;64069;46.396;48.102;2024-03-02T03:37:00;-2.35;72.74
75489;HTU21D;64069;46.396;48.102;2024-03-02T03:39:26;-2.26;72.61
75489;HTU21D;64069;46.396;48.102;2024-03-02T03:41:52;-2.18;72.80
75489;HTU21D;64069;46.396;48.102;2024-03-02T03:44:18;-2.10;72.65
75489;HTU21D;64069;46.396;48.102;2024-03-02T03:46:47;-2.03;72.52
75489;HTU21D;64069;46.396;48.102;2024-03-02T03:49:13;-1.95;72.75
75489;HTU21D;64069;46.396;48.102;2024-03-02T03:51:39;-1.88;72.52
75489;HTU21D;64069;46.396;48.102;2024-03-02T03:54:05;-1.83;72.32
75489;HTU21D;64069;46.396;48.102;2024-03-02T03:56:35;-1.77;72.37
75489;HTU21D;64069;46.396;48.102;2024-03-02T03:59:01;-1.70;72.36
75489;HTU21D;64069;46.396;48.102;2024-03-02T04:01:27;-1.63;72.25
75489;HTU21D;64069;46.396;48.102;2024-03-02T04:03:53;-1.58;72.44
75489;HTU21D;64069;46.396;48.102;2024-03-02T04:06:20;-1.54;72.34
75489;HTU21D;64069;46.396;48.102;2024-03-02T04:08:46;-1.45;72.20
75489;HTU21D;64069;46.396;48.102;2024-03-02T04:11:12;-1.35;71.90
75489;HTU21D;64069;46.396;48.102;2024-03-02T04:13:38;-1.31;71.87
75489;HTU21D;64069;46.396;48.102;2024-03-02T04:16:04;-1.26;71.71
75489;HTU21D;64069;46.396;48.102;2024-03-02T04:18:30;-1.20;71.64
75489;HTU21D;64069;46.396;48.102;2024-03-02T04:20:58;-1.15;71.68
75489;HTU21D;64069;46.396;48.102;2024-03-02T04:23:27;-1.08;71.58
75489;HTU21D;64069;46.396;48.102;2024-03-02T04:25:53;-1.01;71.40
75489;HTU21D;64069;46.396;48.102;2024-03-02T04:28:19;-0.90;71.35
75489;HTU21D;64069;46.396;48.102;2024-03-02T04:30:45;-0.77;71.16
75489;HTU21D;64069;46.396;48.102;2024-03-02T04:33:11;-0.65;71.07
75489;HTU21D;64069;46.396;48.102;2024-03-02T04:35:37;-0.49;70.84
75489;HTU21D;64069;46.396;48.102;2024-03-02T04:38:03;-0.35;70.60
75489;HTU21D;64069;46.396;48.102;2024-03-02T04:40:29;-0.25;70.45
75489;HTU21D;64069;46.396;48.102;2024-03-02T04:42:55;-0.13;70.33
75489;HTU21D;64069;46.396;48.102;2024-03-02T04:45:21;0.01;70.23
75489;HTU21D;64069;46.396;48.102;2024-03-02T04:47:47;0.20;69.98
75489;HTU21D;64069;46.396;48.102;2024-03-02T04:50:13;0.38;69.72
75489;HTU21D;64069;46.396;48.102;2024-03-02T04:52:39;0.47;69.53
75489;HTU21D;64069;46.396;48.102;2024-03-02T04:55:05;0.60;69.57
75489;HTU21D;64069;46.396;48.102;2024-03-02T04:57:50;0.84;69.31
75489;HTU21D;64069;46.396;48.102;2024-03-02T05:00:20;1.06;69.04
75489;HTU21D;64069;46.396;48.102;2024-03-02T05:02:47;1.20;68.82
75489;HTU21D;64069;46.396;48.102;2024-03-02T05:05:13;1.31;68.75
75489;HTU21D;64069;46.396;48.102;2024-03-02T05:07:41;1.42;68.70
75489;HTU21D;64069;46.396;48.102;2024-03-02T05:10:10;1.56;68.55
75489;HTU21D;64069;46.396;48.102;2024-03-02T05:12:37;1.66;68.39
75489;HTU21D;64069;46.396;48.102;2024-03-02T05:15:06;1.73;68.27
75489;HTU21D;64069;46.396;48.102;2024-03-02T05:17:33;1.77;68.28
75489;HTU21D;64069;46.396;48.102;2024-03-02T05:19:59;1.84;68.30
75489;HTU21D;64069;46.396;48.102;2024-03-02T05:22:25;1.95;68.20
75489;HTU21D;64069;46.396;48.102;2024-03-02T05:24:51;2.09;68.12
75489;HTU21D;64069;46.396;48.102;2024-03-02T05:27:17;2.28;67.91
75489;HTU21D;64069;46.396;48.102;2024-03-02T05:29:43;2.52;67.66
75489;HTU21D;64069;46.396;48.102;2024-03-02T05:32:09;2.80;67.38
75489;HTU21D;64069;46.396;48.102;2024-03-02T05:34:35;3.10;67.04
75489;HTU21D;64069;46.396;48.102;2024-03-02T05:37:01;3.32;66.55
75489;HTU21D;64069;46.396;48.102;2024-03-02T05:39:27;3.60;66.27
75489;HTU21D;64069;46.396;48.102;2024-03-02T05:41:53;3.86;65.74
75489;HTU21D;64069;46.396;48.102;2024-03-02T05:44:19;3.99;65.35
75489;HTU21D;64069;46.396;48.102;2024-03-02T05:46:45;4.10;65.21
75489;HTU21D;64069;46.396;48.102;2024-03-02T05:49:11;4.27;65.01
75489;HTU21D;64069;46.396;48.102;2024-03-02T05:51:38;4.52;64.53
75489;HTU21D;64069;46.396;48.102;2024-03-02T05:54:04;4.73;63.98
75489;HTU21D;64069;46.396;48.102;2024-03-02T05:56:30;4.91;63.47
75489;HTU21D;64069;46.396;48.102;2024-03-02T05:58:56;5.06;62.62
75489;HTU21D;64069;46.396;48.102;2024-03-02T06:01:45;5.12;61.83
75489;HTU21D;64069;46.396;48.102;2024-03-02T06:04:18;5.24;61.55
75489;HTU21D;64069;46.396;48.102;2024-03-02T06:06:44;5.43;61.12
75489;HTU21D;64069;46.396;48.102;2024-03-02T06:09:10;5.65;60.60
75489;HTU21D;64069;46.396;48.102;2024-03-02T06:11:40;5.76;59.99
75489;HTU21D;64069;46.396;48.102;2024-03-02T06:14:07;5.85;59.74
75489;HTU21D;64069;46.396;48.102;2024-03-02T06:16:33;5.96;59.55
75489;HTU21D;64069;46.396;48.102;2024-03-02T06:19:00;6.09;59.45
75489;HTU21D;64069;46.396;48.102;2024-03-02T06:21:27;6.27;58.95
75489;HTU21D;64069;46.396;48.102;2024-03-02T06:23:53;6.30;58.65
75489;HTU21D;64069;46.396;48.102;2024-03-02T06:26:20;6.36;58.60
75489;HTU21D;64069;46.396;48.102;2024-03-02T06:28:46;6.48;58.54
75489;HTU21D;64069;46.396;48.102;2024-03-02T06:31:12;6.61;58.13
75489;HTU21D;64069;46.396;48.102;2024-03-02T06:33:38;6.65;57.93
75489;HTU21D;64069;46.396;48.102;2024-03-02T06:36:05;6.69;57.96
75489;HTU21D;64069;46.396;48.102;2024-03-02T06:38:34;6.71;57.66
75489;HTU21D;64069;46.396;48.102;2024-03-02T06:41:00;6.72;57.57
75489;HTU21D;64069;46.396;48.102;2024-03-02T06:43:26;6.80;57.42
75489;HTU21D;64069;46.396;48.102;2024-03-02T06:45:52;6.83;56.97
75489;HTU21D;64069;46.396;48.102;2024-03-02T06:48:19;6.72;56.40
75489;HTU21D;64069;46.396;48.102;2024-03-02T06:50:49;6.70;56.23
75489;HTU21D;64069;46.396;48.102;2024-03-02T06:53:16;6.76;56.22
75489;HTU21D;64069;46.396;48.102;2024-03-02T06:55:46;6.89;55.76
75489;HTU21D;64069;46.396;48.102;2024-03-02T06:58:13;7.00;55.75
75489;HTU21D;64069;46.396;48.102;2024-03-02T07:00:41;7.10;55.65
75489;HTU21D;64069;46.396;48.102;2024-03-02T07:03:08;7.13;55.55
75489;HTU21D;64069;46.396;48.102;2024-03-02T07:05:34;7.30;55.22
75489;HTU21D;64069;46.396;48.102;2024-03-02T07:08:00;7.37;54.68
75489;HTU21D;64069;46.396;48.102;2024-03-02T07:10:27;7.34;54.19
75489;HTU21D;64069;46.396;48.102;2024-03-02T07:12:53;7.45;53.91
75489;HTU21D;64069;46.396;48.102;2024-03-02T07:15:19;7.52;53.70
75489;HTU21D;64069;46.396;48.102;2024-03-02T07:17:54;7.52;52.71
75489;HTU21D;64069;46.396;48.102;2024-03-02T07:20:20;7.48;52.15
75489;HTU21D;64069;46.396;48.102;2024-03-02T07:22:46;7.55;52.17
75489;HTU21D;64069;46.396;48.102;2024-03-02T07:25:12;7.67;51.72
75489;HTU21D;64069;46.396;48.102;2024-03-02T07:27:39;7.73;51.43
75489;HTU21D;64069;46.396;48.102;2024-03-02T07:30:06;7.74;50.43
75489;HTU21D;64069;46.396;48.102;2024-03-02T07:32:32;7.68;50.40
75489;HTU21D;64069;46.396;48.102;2024-03-02T07:34:58;7.63;50.24
75489;HTU21D;64069;46.396;48.102;2024-03-02T07:37:25;7.64;50.48
75489;HTU21D;64069;46.396;48.102;2024-03-02T07:39:51;7.71;50.18
75489;HTU21D;64069;46.396;48.102;2024-03-02T07:42:17;7.82;50.03
75489;HTU21D;64069;46.396;48.102;2024-03-02T07:44:46;7.84;49.65
75489;HTU21D;64069;46.396;48.102;2024-03-02T07:47:12;7.84;49.13
75489;HTU21D;64069;46.396;48.102;2024-03-02T07:49:38;7.92;49.03
75489;HTU21D;64069;46.396;48.102;2024-03-02T07:52:04;8.05;49.11
75489;HTU21D;64069;46.396;48.102;2024-03-02T07:54:30;8.18;48.84
75489;HTU21D;64069;46.396;48.102;2024-03-02T07:56:56;8.19;48.36
75489;HTU21D;64069;46.396;48.102;2024-03-02T07:59:23;8.17;48.50
75489;HTU21D;64069;46.396;48.102;2024-03-02T08:01:50;8.13;48.17
75489;HTU21D;64069;46.396;48.102;2024-03-02T08:04:17;8.18;48.18
75489;HTU21D;64069;46.396;48.102;2024-03-02T08:06:43;8.23;47.93
75489;HTU21D;64069;46.396;48.102;2024-03-02T08:09:09;8.26;47.57
75489;HTU21D;64069;46.396;48.102;2024-03-02T08:11:36;8.31;47.02
75489;HTU21D;64069;46.396;48.102;2024-03-02T08:14:03;8.35;46.44
75489;HTU21D;64069;46.396;48.102;2024-03-02T08:16:29;8.39;45.31
75489;HTU21D;64069;46.396;48.102;2024-03-02T08:18:55;8.39;45.03
75489;HTU21D;64069;46.396;48.102;2024-03-02T08:21:24;8.50;44.25
75489;HTU21D;64069;46.396;48.102;2024-03-02T08:23:50;8.46;43.26
75489;HTU21D;64069;46.396;48.102;2024-03-02T08:26:16;8.47;43.85
75489;HTU21D;64069;46.396;48.102;2024-03-02T08:28:42;8.55;43.69
75489;HTU21D;64069;46.396;48.102;2024-03-02T08:31:09;8.65;43.47
75489;HTU21D;64069;46.396;48.102;2024-03-02T08:33:35;8.77;43.21
75489;HTU21D;64069;46.396;48.102;2024-03-02T08:36:01;8.79;43.40
75489;HTU21D;64069;46.396;48.102;2024-03-02T08:38:28;8.83;42.93
75489;HTU21D;64069;46.396;48.102;2024-03-02T08:40:55;8.81;41.55
75489;HTU21D;64069;46.396;48.102;2024-03-02T08:43:21;8.79;41.46
75489;HTU21D;64069;46.396;48.102;2024-03-02T08:45:48;8.79;41.25
75489;HTU21D;64069;46.396;48.102;2024-03-02T08:48:14;8.77;40.01
75489;HTU21D;64069;46.396;48.102;2024-03-02T08:50:40;8.76;40.48
75489;HTU21D;64069;46.396;48.102;2024-03-02T08:53:06;8.86;40.23
75489;HTU21D;64069;46.396;48.102;2024-03-02T08:55:33;8.98;39.80
75489;HTU21D;64069;46.396;48.102;2024-03-02T08:57:58;9.08;39.71
75489;HTU21D;64069;46.396;48.102;2024-03-02T09:00:25;9.19;39.78
75489;HTU21D;64069;46.396;48.102;2024-03-02T09:02:51;9.34;39.68
75489;HTU21D;64069;46.396;48.102;2024-03-02T09:05:17;9.36;39.39
75489;HTU21D;64069;46.396;48.102;2024-03-02T09:07:43;9.34;39.52
75489;HTU21D;64069;46.396;48.102;2024-03-02T09:10:09;9.31;38.82
75489;HTU21D;64069;46.396;48.102;2024-03-02T09:12:36;9.21;38.36
75489;HTU21D;64069;46.396;48.102;2024-03-02T09:15:03;9.10;37.97
75489;HTU21D;64069;46.396;48.102;2024-03-02T09:17:29;9.04;38.05
75489;HTU21D;64069;46.396;48.102;2024-03-02T09:19:56;9.05;38.58
75489;HTU21D;64069;46.396;48.102;2024-03-02T09:22:22;9.12;38.24
75489;HTU21D;64069;46.396;48.102;2024-03-02T09:24:49;9.15;38.09
75489;HTU21D;64069;46.396;48.102;2024-03-02T09:27:14;9.08;37.78
75489;HTU21D;64069;46.396;48.102;2024-03-02T09:29:41;9.08;37.45
75489;HTU21D;64069;46.396;48.102;2024-03-02T09:32:08;9.16;37.08
75489;HTU21D;64069;46.396;48.102;2024-03-02T09:34:34;9.15;36.32
75489;HTU21D;64069;46.396;48.102;2024-03-02T09:37:00;9.17;35.93
75489;HTU21D;64069;46.396;48.102;2024-03-02T09:39:26;9.11;35.03
75489;HTU21D;64069;46.396;48.102;2024-03-02T09:41:52;9.08;34.76
75489;HTU21D;64069;46.396;48.102;2024-03-02T09:44:19;9.10;34.03
75489;HTU21D;64069;46.396;48.102;2024-03-02T09:46:49;9.16;34.04
75489;HTU21D;64069;46.396;48.102;2024-03-02T09:49:15;9.22;33.79
75489;HTU21D;64069;46.396;48.102;2024-03-02T09:51:47;9.21;32.99
75489;HTU21D;64069;46.396;48.102;2024-03-02T09:54:13;9.17;32.30
75489;HTU21D;64069;46.396;48.102;2024-03-02T09:56:39;9.18;32.57
75489;HTU21D;64069;46.396;48.102;2024-03-02T09:59:05;9.21;32.21
75489;HTU21D;64069;46.396;48.102;2024-03-02T10:01:31;9.22;31.96
75489;HTU21D;64069;46.396;48.102;2024-03-02T10:04:01;9.23;32.24
75489;HTU21D;64069;46.396;48.102;2024-03-02T10:06:28;9.34;32.56
75489;HTU21D;64069;46.396;48.102;2024-03-02T10:08:55;9.48;32.31
75489;HTU21D;64069;46.396;48.102;2024-03-02T10:11:34;9.53;32.14
75489;HTU21D;64069;46.396;48.102;2024-03-02T10:14:10;9.57;32.06
75489;HTU21D;64069;46.396;48.102;2024-03-02T10:16:41;9.61;31.90
75489;HTU21D;64069;46.396;48.102;2024-03-02T10:19:21;9.62;31.73
75489;HTU21D;64069;46.396;48.102;2024-03-02T10:21:49;9.70;32.06
75489;HTU21D;64069;46.396;48.102;2024-03-02T10:24:16;9.81;31.64
75489;HTU21D;64069;46.396;48.102;2024-03-02T10:26:42;9.71;31.16
75489;HTU21D;64069;46.396;48.102;2024-03-02T10:29:10;9.59;31.11
75489;HTU21D;64069;46.396;48.102;2024-03-02T10:31:40;9.55;31.06
75489;HTU21D;64069;46.396;48.102;2024-03-02T10:34:08;9.56;31.06
75489;HTU21D;64069;46.396;48.102;2024-03-02T10:36:34;9.52;30.83
75489;HTU21D;64069;46.396;48.102;2024-03-02T10:39:05;9.50;30.60
75489;HTU21D;64069;46.396;48.102;2024-03-02T10:41:35;9.46;30.45
75489;HTU21D;64069;46.396;48.102;2024-03-02T10:44:06;9.46;30.86
75489;HTU21D;64069;46.396;48.102;2024-03-02T10:46:34;9.45;30.90
75489;HTU21D;64069;46.396;48.102;2024-03-02T10:49:02;9.36;30.79
75489;HTU21D;64069;46.396;48.102;2024-03-02T10:51:31;9.30;30.58
75489;HTU21D;64069;46.396;48.102;2024-03-02T10:53:58;9.29;30.25
75489;HTU21D;64069;46.396;48.102;2024-03-02T10:56:40;9.26;30.25
75489;HTU21D;64069;46.396;48.102;2024-03-02T11:01:33;9.25;30.89
75489;HTU21D;64069;46.396;48.102;2024-03-02T11:04:02;9.22;30.86
75489;HTU21D;64069;46.396;48.102;2024-03-02T11:06:28;9.18;30.57
75489;HTU21D;64069;46.396;48.102;2024-03-02T11:09:00;9.05;30.19
75489;HTU21D;64069;46.396;48.102;2024-03-02T11:11:31;9.06;30.51
75489;HTU21D;64069;46.396;48.102;2024-03-02T11:14:01;9.03;30.55
75489;HTU21D;64069;46.396;48.102;2024-03-02T11:16:35;9.08;30.43
75489;HTU21D;64069;46.396;48.102;2024-03-02T11:19:12;9.09;30.35
75489;HTU21D;64069;46.396;48.102;2024-03-02T11:21:39;9.10;30.33
75489;HTU21D;64069;46.396;48.102;2024-03-02T11:26:50;9.00;30.26
75489;HTU21D;64069;46.396;48.102;2024-03-02T11:32:21;8.77;29.25
75489;HTU21D;64069;46.396;48.102;2024-03-02T11:34:49;8.61;29.19
75489;HTU21D;64069;46.396;48.102;2024-03-02T11:37:17;8.46;28.96
75489;HTU21D;64069;46.396;48.102;2024-03-02T11:39:49;8.38;28.88
75489;HTU21D;64069;46.396;48.102;2024-03-02T11:42:15;8.28;29.11
75489;HTU21D;64069;46.396;48.102;2024-03-02T11:44:44;8.20;28.92
75489;HTU21D;64069;46.396;48.102;2024-03-02T11:47:15;8.17;29.28
75489;HTU21D;64069;46.396;48.102;2024-03-02T11:49:49;8.14;29.46
75489;HTU21D;64069;46.396;48.102;2024-03-02T11:52:16;8.14;29.50
75489;HTU21D;64069;46.396;48.102;2024-03-02T11:54:47;8.11;29.65
75489;HTU21D;64069;46.396;48.102;2024-03-02T11:57:15;8.09;29.96
75489;HTU21D;64069;46.396;48.102;2024-03-02T11:59:42;8.08;30.17
75489;HTU21D;64069;46.396;48.102;2024-03-02T12:02:15;8.04;30.01
75489;HTU21D;64069;46.396;48.102;2024-03-02T12:04:42;8.00;30.42
75489;HTU21D;64069;46.396;48.102;2024-03-02T12:07:09;7.96;30.35
75489;HTU21D;64069;46.396;48.102;2024-03-02T12:09:35;7.92;30.61
75489;HTU21D;64069;46.396;48.102;2024-03-02T12:12:09;7.88;30.51
75489;HTU21D;64069;46.396;48.102;2024-03-02T12:14:37;7.83;30.52
75489;HTU21D;64069;46.396;48.102;2024-03-02T12:17:04;7.78;30.77
75489;HTU21D;64069;46.396;48.102;2024-03-02T12:19:32;7.75;30.75
75489;HTU21D;64069;46.396;48.102;2024-03-02T12:21:59;7.75;30.87
75489;HTU21D;64069;46.396;48.102;2024-03-02T12:24:29;7.74;30.99
75489;HTU21D;64069;46.396;48.102;2024-03-02T12:26:55;7.72;31.13
75489;HTU21D;64069;46.396;48.102;2024-03-02T12:29:23;7.71;31.15
75489;HTU21D;64069;46.396;48.102;2024-03-02T12:31:51;7.67;31.13
75489;HTU21D;64069;46.396;48.102;2024-03-02T12:34:21;7.63;31.37
75489;HTU21D;64069;46.396;48.102;2024-03-02T12:36:49;7.60;31.46
75489;HTU21D;64069;46.396;48.102;2024-03-02T12:39:19;7.59;31.63
75489;HTU21D;64069;46.396;48.102;2024-03-02T12:41:49;7.54;31.45
75489;HTU21D;64069;46.396;48.102;2024-03-02T12:44:19;7.48;31.74
75489;HTU21D;64069;46.396;48.102;2024-03-02T12:46:46;7.46;31.81
75489;HTU21D;64069;46.396;48.102;2024-03-02T12:49:14;7.42;32.09
75489;HTU21D;64069;46.396;48.102;2024-03-02T12:51:44;7.35;31.90
75489;HTU21D;64069;46.396;48.102;2024-03-02T12:54:12;7.27;32.22
75489;HTU21D;64069;46.396;48.102;2024-03-02T12:56:41;7.19;32.30
75489;HTU21D;64069;46.396;48.102;2024-03-02T12:59:19;7.14;32.25
75489;HTU21D;64069;46.396;48.102;2024-03-02T13:01:53;7.07;32.34
75489;HTU21D;64069;46.396;48.102;2024-03-02T13:04:27;6.98;32.41
75489;HTU21D;64069;46.396;48.102;2024-03-02T13:06:55;6.90;32.62
75489;HTU21D;64069;46.396;48.102;2024-03-02T13:09:23;6.87;32.95
75489;HTU21D;64069;46.396;48.102;2024-03-02T13:11:50;6.82;33.16
75489;HTU21D;64069;46.396;48.102;2024-03-02T13:14:16;6.76;33.35
75489;HTU21D;64069;46.396;48.102;2024-03-02T13:16:42;6.72;33.50
75489;HTU21D;64069;46.396;48.102;2024-03-02T13:19:11;6.66;33.67
75489;HTU21D;64069;46.396;48.102;2024-03-02T13:21:37;6.60;33.74
75489;HTU21D;64069;46.396;48.102;2024-03-02T13:24:04;6.52;33.98
75489;HTU21D;64069;46.396;48.102;2024-03-02T13:26:31;6.42;34.21
75489;HTU21D;64069;46.396;48.102;2024-03-02T13:28:57;6.36;34.40
75489;HTU21D;64069;46.396;48.102;2024-03-02T13:31:23;6.26;34.50
75489;HTU21D;64069;46.396;48.102;2024-03-02T13:33:49;6.20;34.68
75489;HTU21D;64069;46.396;48.102;2024-03-02T13:36:15;6.13;34.81
75489;HTU21D;64069;46.396;48.102;2024-03-02T13:38:41;6.06;35.03
75489;HTU21D;64069;46.396;48.102;2024-03-02T13:41:07;5.99;35.28
75489;HTU21D;64069;46.396;48.102;2024-03-02T13:43:34;5.92;35.47
75489;HTU21D;64069;46.396;48.102;2024-03-02T13:46:03;5.85;35.70
75489;HTU21D;64069;46.396;48.102;2024-03-02T13:48:29;5.83;35.86
75489;HTU21D;64069;46.396;48.102;2024-03-02T13:50:56;5.80;36.00
75489;HTU21D;64069;46.396;48.102;2024-03-02T13:53:22;5.74;36.16
75489;HTU21D;64069;46.396;48.102;2024-03-02T13:55:49;5.66;36.37
75489;HTU21D;64069;46.396;48.102;2024-03-02T13:58:15;5.59;36.55
75489;HTU21D;64069;46.396;48.102;2024-03-02T14:00:41;5.50;36.77
75489;HTU21D;64069;46.396;48.102;2024-03-02T14:03:10;5.41;36.98
75489;HTU21D;64069;46.396;48.102;2024-03-02T14:05:36;5.35;37.17
75489;HTU21D;64069;46.396;48.102;2024-03-02T14:08:03;5.25;37.36
75489;HTU21D;64069;46.396;48.102;2024-03-02T14:10:29;5.18;37.56
75489;HTU21D;64069;46.396;48.102;2024-03-02T14:12:55;5.06;37.72
75489;HTU21D;64069;46.396;48.102;2024-03-02T14:15:22;4.97;37.95
75489;HTU21D;64069;46.396;48.102;2024-03-02T14:17:49;4.88;38.09
75489;HTU21D;64069;46.396;48.102;2024-03-02T14:20:16;4.79;38.29
75489;HTU21D;64069;46.396;48.102;2024-03-02T14:22:48;4.73;38.33
75489;HTU21D;64069;46.396;48.102;2024-03-02T14:25:14;4.66;38.35
75489;HTU21D;64069;46.396;48.102;2024-03-02T14:27:40;4.54;38.36
75489;HTU21D;64069;46.396;48.102;2024-03-02T14:30:06;4.47;38.19
75489;HTU21D;64069;46.396;48.102;2024-03-02T14:32:32;4.36;38.24
75489;HTU21D;64069;46.396;48.102;2024-03-02T14:34:58;4.22;38.27
75489;HTU21D;64069;46.396;48.102;2024-03-02T14:37:24;4.13;38.17
75489;HTU21D;64069;46.396;48.102;2024-03-02T14:39:50;4.02;38.08
75489;HTU21D;64069;46.396;48.102;2024-03-02T14:42:17;3.92;37.90
75489;HTU21D;64069;46.396;48.102;2024-03-02T14:44:43;3.83;37.95
75489;HTU21D;64069;46.396;48.102;2024-03-02T14:47:09;3.73;37.84
75489;HTU21D;64069;46.396;48.102;2024-03-02T14:49:34;3.64;37.93
75489;HTU21D;64069;46.396;48.102;2024-03-02T14:52:03;3.55;38.05
75489;HTU21D;64069;46.396;48.102;2024-03-02T14:54:30;3.44;38.15
75489;HTU21D;64069;46.396;48.102;2024-03-02T14:56:56;3.34;38.35
75489;HTU21D;64069;46.396;48.102;2024-03-02T14:59:22;3.24;38.53
75489;HTU21D;64069;46.396;48.102;2024-03-02T15:01:48;3.16;38.65
75489;HTU21D;64069;46.396;48.102;2024-03-02T15:04:15;3.10;38.72
75489;HTU21D;64069;46.396;48.102;2024-03-02T15:06:42;3.02;38.91
75489;HTU21D;64069;46.396;48.102;2024-03-02T15:09:08;2.97;39.05
75489;HTU21D;64069;46.396;48.102;2024-03-02T15:11:34;2.84;39.23
75489;HTU21D;64069;46.396;48.102;2024-03-02T15:14:00;2.73;39.53
75489;HTU21D;64069;46.396;48.102;2024-03-02T15:16:26;2.61;39.72
75489;HTU21D;64069;46.396;48.102;2024-03-02T15:18:53;2.51;39.90
75489;HTU21D;64069;46.396;48.102;2024-03-02T15:21:20;2.41;40.07
75489;HTU21D;64069;46.396;48.102;2024-03-02T15:23:45;2.30;40.25